createdAt,value
2018-05-11T00:02:10.100Z,14.66
2018-05-11T00:04:38.452Z,14.70
2018-05-11T00:07:06.830Z,14.70
2018-05-11T00:09:35.170Z,14.78
2018-05-11T00:12:05.260Z,14.85
2018-05-11T00:14:34.432Z,14.82
2018-05-11T00:17:03.653Z,14.88
2018-05-11T00:19:32.007Z,14.87
2018-05-11T00:22:00.345Z,14.92
2018-05-11T00:24:29.456Z,14.91
2018-05-11T00:26:58.626Z,14.84
2018-05-11T00:29:27.831Z,14.83
2018-05-11T00:31:57.835Z,14.79
2018-05-11T00:34:26.418Z,14.81
2018-05-11T00:36:54.837Z,14.72
2018-05-11T00:39:23.768Z,14.66
2018-05-11T00:41:52.869Z,14.67
2018-05-11T00:44:22.026Z,14.59
2018-05-11T00:46:50.475Z,14.62
2018-05-11T00:49:19.601Z,14.52
2018-05-11T00:51:49.548Z,14.51
2018-05-11T00:54:18.017Z,14.59
2018-05-11T00:56:46.379Z,14.60
2018-05-11T00:59:14.750Z,14.52
2018-05-11T01:01:43.186Z,14.46
2018-05-11T01:04:11.509Z,14.45
2018-05-11T01:06:39.900Z,14.51
2018-05-11T01:09:08.396Z,14.50
2018-05-11T01:11:36.758Z,14.54
2018-05-11T01:14:05.177Z,14.38
2018-05-11T01:16:33.977Z,14.30
2018-05-11T01:19:03.700Z,14.31
2018-05-11T01:21:33.025Z,14.40
2018-05-11T01:24:02.107Z,14.41
2018-05-11T01:26:31.249Z,14.43
2018-05-11T01:28:59.589Z,14.43
2018-05-11T01:31:29.499Z,14.41
2018-05-11T01:33:58.649Z,14.28
2018-05-11T01:36:27.793Z,14.21
2018-05-11T01:38:57.026Z,14.28
2018-05-11T01:41:25.421Z,14.28
2018-05-11T01:43:53.774Z,14.30
2018-05-11T01:46:22.869Z,14.26
2018-05-11T01:48:51.245Z,14.23
2018-05-11T01:51:19.636Z,14.17
2018-05-11T01:53:48.045Z,14.11
2018-05-11T01:56:17.318Z,14.04
2018-05-11T01:58:46.578Z,14.18
2018-05-11T02:01:16.834Z,14.12
2018-05-11T02:03:46.753Z,14.11
2018-05-11T02:06:15.124Z,14.08
2018-05-11T02:08:44.954Z,14.07
2018-05-11T02:11:13.637Z,14.09
2018-05-11T02:13:42.800Z,14.02
2018-05-11T02:16:11.923Z,14.05
2018-05-11T02:18:40.296Z,13.98
2018-05-11T02:21:09.510Z,13.94
2018-05-11T02:23:37.838Z,13.97
2018-05-11T02:26:06.923Z,13.93
2018-05-11T02:28:35.297Z,13.98
2018-05-11T02:31:03.651Z,14.01
2018-05-11T02:33:32.285Z,13.99
2018-05-11T02:36:00.658Z,13.99
2018-05-11T02:38:29.789Z,14.03
2018-05-11T02:40:58.162Z,14.04
2018-05-11T02:43:26.530Z,14.08
2018-05-11T02:45:54.853Z,13.99
2018-05-11T02:48:23.328Z,14.09
2018-05-11T02:50:51.724Z,14.17
2018-05-11T02:53:20.073Z,14.25
2018-05-11T02:55:48.525Z,14.24
2018-05-11T02:58:16.890Z,14.29
2018-05-11T03:00:45.518Z,14.20
2018-05-11T03:03:16.237Z,14.17
2018-05-11T03:05:44.612Z,14.12
2018-05-11T03:08:13.622Z,14.08
2018-05-11T03:10:41.988Z,14.09
2018-05-11T03:13:10.358Z,14.00
2018-05-11T03:15:39.565Z,14.03
2018-05-11T03:18:09.281Z,14.11
2018-05-11T03:20:37.960Z,14.11
2018-05-11T03:23:06.311Z,14.06
2018-05-11T03:25:35.457Z,13.98
2018-05-11T03:28:03.816Z,14.01
2018-05-11T03:30:32.188Z,13.97
2018-05-11T03:33:00.659Z,13.91
2018-05-11T03:35:28.979Z,13.94
2018-05-11T03:37:57.402Z,13.99
2018-05-11T03:40:25.795Z,14.04
2018-05-11T03:42:54.949Z,13.96
2018-05-11T03:45:23.332Z,13.91
2018-05-11T03:47:51.705Z,13.96
2018-05-11T03:50:20.051Z,14.02
2018-05-11T03:52:48.405Z,14.03
2018-05-11T03:55:16.770Z,13.93
2018-05-11T03:57:45.897Z,13.89
2018-05-11T04:00:15.190Z,13.89
2018-05-11T04:03:01.428Z,13.95
2018-05-11T04:05:48.906Z,13.99
2018-05-11T04:08:44.159Z,14.04
2018-05-11T04:11:12.528Z,13.93
2018-05-11T04:13:40.896Z,13.95
2018-05-11T04:16:09.288Z,13.91
2018-05-11T04:18:37.666Z,13.96
2018-05-11T04:21:06.975Z,14.02
2018-05-11T04:23:35.321Z,13.99
2018-05-11T04:26:03.695Z,14.12
2018-05-11T04:28:32.097Z,14.02
2018-05-11T04:31:02.133Z,13.89
2018-05-11T04:33:30.527Z,13.89
2018-05-11T04:35:59.638Z,13.83
2018-05-11T04:38:28.030Z,13.77
2018-05-11T04:40:56.912Z,13.86
2018-05-11T04:43:26.031Z,13.96
2018-05-11T04:45:54.370Z,13.83
2018-05-11T04:48:23.524Z,13.89
2018-05-11T04:50:51.911Z,13.99
2018-05-11T04:53:22.065Z,14.05
2018-05-11T04:55:51.250Z,14.15
2018-05-11T04:58:19.615Z,14.29
2018-05-11T05:00:48.156Z,14.29
2018-05-11T05:03:16.515Z,14.35
2018-05-11T05:05:45.652Z,14.48
2018-05-11T05:08:13.987Z,14.52
2018-05-11T05:10:43.271Z,14.52
2018-05-11T05:13:12.649Z,14.54
2018-05-11T05:15:41.058Z,14.52
2018-05-11T05:18:10.214Z,14.47
2018-05-11T05:20:38.590Z,14.45
2018-05-11T05:23:06.983Z,14.45
2018-05-11T05:25:35.441Z,14.57
2018-05-11T05:28:03.793Z,14.42
2018-05-11T05:30:33.129Z,14.39
2018-05-11T05:33:01.578Z,14.39
2018-05-11T05:35:31.529Z,14.53
2018-05-11T05:38:00.331Z,14.54
2018-05-11T05:40:28.657Z,14.55
2018-05-11T05:42:58.402Z,14.62
2018-05-11T05:45:26.831Z,14.56
2018-05-11T05:47:55.938Z,14.61
2018-05-11T05:50:27.954Z,14.59
2018-05-11T05:52:56.358Z,14.67
2018-05-11T05:55:24.755Z,14.79
2018-05-11T05:57:55.429Z,14.90
2018-05-11T06:00:23.801Z,14.90
2018-05-11T06:02:52.143Z,14.95
2018-05-11T06:05:21.369Z,15.02
2018-05-11T06:07:49.788Z,15.08
2018-05-11T06:10:18.153Z,15.02
2018-05-11T06:12:46.580Z,14.87
2018-05-11T06:15:14.973Z,14.96
2018-05-11T06:17:43.962Z,15.01
2018-05-11T06:20:12.340Z,15.05
2018-05-11T06:22:41.503Z,14.86
2018-05-11T06:25:10.505Z,14.87
2018-05-11T06:27:38.885Z,14.97
2018-05-11T06:30:07.499Z,14.95
2018-05-11T06:32:35.869Z,14.87
2018-05-11T06:35:05.247Z,14.76
2018-05-11T06:37:33.993Z,14.71
2018-05-11T06:40:03.151Z,14.79
2018-05-11T06:42:35.864Z,14.94
2018-05-11T06:45:05.214Z,15.11
2018-05-11T06:47:33.969Z,14.97
2018-05-11T06:50:03.727Z,14.89
2018-05-11T06:52:32.892Z,14.83
2018-05-11T06:55:01.270Z,14.76
2018-05-11T06:57:29.609Z,14.92
2018-05-11T06:59:58.928Z,14.84
2018-05-11T07:02:27.269Z,14.98
2018-05-11T07:04:55.767Z,15.14
2018-05-11T07:07:24.244Z,15.02
2018-05-11T07:09:52.579Z,15.18
2018-05-11T07:12:21.286Z,15.28
2018-05-11T07:14:50.621Z,15.35
2018-05-11T07:17:19.103Z,15.40
2018-05-11T07:19:47.518Z,15.38
2018-05-11T07:22:15.913Z,15.37
2018-05-11T07:24:44.251Z,15.53
2018-05-11T07:27:12.653Z,15.64
2018-05-11T07:29:41.030Z,15.80
2018-05-11T07:32:09.372Z,15.80
2018-05-11T07:34:39.035Z,15.67
2018-05-11T07:37:08.222Z,15.74
2018-05-11T07:39:36.609Z,15.87
2018-05-11T07:42:04.967Z,15.98
2018-05-11T07:44:33.345Z,15.93
2018-05-11T07:47:01.749Z,15.83
2018-05-11T07:49:30.147Z,15.93
2018-05-11T07:51:59.764Z,16.00
2018-05-11T07:54:28.170Z,16.17
2018-05-11T07:56:56.547Z,16.30
2018-05-11T07:59:24.884Z,16.14
2018-05-11T08:01:54.028Z,16.16
2018-05-11T08:04:22.404Z,16.15
2018-05-11T08:06:50.741Z,16.19
2018-05-11T08:09:19.088Z,16.33
2018-05-11T08:11:47.451Z,16.47
2018-05-11T08:14:16.168Z,16.37
2018-05-11T08:16:44.903Z,16.23
2018-05-11T08:19:15.403Z,16.32
2018-05-11T08:21:44.623Z,16.15
2018-05-11T08:24:12.944Z,16.03
2018-05-11T08:26:41.338Z,16.17
2018-05-11T08:29:09.667Z,16.24
2018-05-11T08:31:38.081Z,16.43
2018-05-11T08:34:06.467Z,16.43
2018-05-11T08:36:34.900Z,16.57
2018-05-11T08:39:04.445Z,16.69
2018-05-11T08:41:33.634Z,16.84
2018-05-11T08:44:02.047Z,16.79
2018-05-11T08:46:31.800Z,16.82
2018-05-11T08:49:00.205Z,16.68
2018-05-11T08:51:28.636Z,16.58
2018-05-11T08:53:57.017Z,16.71
2018-05-11T08:56:25.438Z,16.76
2018-05-11T08:58:53.802Z,16.75
2018-05-11T09:01:22.294Z,16.74
2018-05-11T09:03:50.638Z,16.95
2018-05-11T09:06:19.057Z,17.15
2018-05-11T09:08:47.420Z,17.29
2018-05-11T09:11:15.807Z,17.30
2018-05-11T09:13:44.198Z,17.53
2018-05-11T09:16:12.810Z,17.73
2018-05-11T09:18:42.008Z,17.59
2018-05-11T09:21:11.201Z,17.49
2018-05-11T09:23:39.889Z,17.59
2018-05-11T09:26:09.150Z,17.52
2018-05-11T09:28:38.360Z,17.47
2018-05-11T09:31:07.546Z,17.56
2018-05-11T09:33:35.934Z,17.58
2018-05-11T09:36:04.323Z,17.66
2018-05-11T09:38:32.681Z,17.70
2018-05-11T09:41:01.944Z,17.78
2018-05-11T09:43:31.086Z,17.91
2018-05-11T09:45:59.459Z,17.99
2018-05-11T09:48:27.936Z,17.87
2018-05-11T09:50:56.423Z,17.92
2018-05-11T09:53:24.773Z,17.94
2018-05-11T09:55:53.172Z,17.88
2018-05-11T09:58:21.578Z,17.99
2018-05-11T10:00:50.871Z,18.17
2018-05-11T10:03:19.234Z,18.30
2018-05-11T10:05:48.642Z,18.41
2018-05-11T10:08:17.031Z,18.36
2018-05-11T10:10:45.430Z,18.45
2018-05-11T10:13:15.639Z,18.61
2018-05-11T10:15:44.091Z,18.65
2018-05-11T10:18:12.471Z,18.67
2018-05-11T10:20:40.873Z,18.71
2018-05-11T10:23:09.237Z,18.52
2018-05-11T10:25:37.719Z,18.48
2018-05-11T10:28:06.115Z,18.52
2018-05-11T10:30:34.490Z,18.59
2018-05-11T10:33:02.922Z,18.68
2018-05-11T10:35:31.324Z,18.69
2018-05-11T10:37:59.829Z,18.71
2018-05-11T10:40:28.185Z,18.67
2018-05-11T10:42:56.607Z,18.67
2018-05-11T10:45:25.790Z,18.70
2018-05-11T10:47:54.146Z,18.74
2018-05-11T10:50:22.529Z,18.77
2018-05-11T10:52:51.951Z,18.80
2018-05-11T10:55:20.472Z,18.65
2018-05-11T10:57:49.680Z,18.65
2018-05-11T11:00:18.801Z,18.73
2018-05-11T11:02:47.200Z,18.71
2018-05-11T11:05:15.577Z,18.68
2018-05-11T11:07:43.986Z,18.70
2018-05-11T11:10:15.602Z,18.76
2018-05-11T11:12:44.040Z,18.81
2018-05-11T11:15:12.410Z,18.89
2018-05-11T11:17:40.792Z,18.96
2018-05-11T11:20:09.999Z,18.99
2018-05-11T11:22:38.366Z,18.98
2018-05-11T11:25:07.639Z,19.07
2018-05-11T11:27:35.980Z,19.01
2018-05-11T11:30:04.386Z,18.79
2018-05-11T11:32:32.900Z,18.88
2018-05-11T11:35:02.922Z,18.89
2018-05-11T11:37:32.148Z,18.99
2018-05-11T11:40:00.494Z,19.10
2018-05-11T11:42:30.042Z,19.15
2018-05-11T11:44:59.130Z,19.18
2018-05-11T11:47:28.129Z,19.46
2018-05-11T11:49:56.834Z,19.70
2018-05-11T11:52:25.297Z,19.94
2018-05-11T11:54:53.919Z,20.00
2018-05-11T11:57:22.282Z,19.71
2018-05-11T11:59:50.639Z,19.76
2018-05-11T12:02:22.512Z,19.95
2018-05-11T12:04:53.436Z,20.08
2018-05-11T12:07:21.806Z,20.23
2018-05-11T12:09:50.226Z,20.31
2018-05-11T12:12:19.084Z,20.16
2018-05-11T12:14:48.277Z,20.40
2018-05-11T12:17:17.489Z,20.16
2018-05-11T12:19:46.270Z,19.91
2018-05-11T12:22:14.705Z,19.75
2018-05-11T12:24:43.928Z,19.90
2018-05-11T12:27:12.355Z,19.97
2018-05-11T12:29:41.492Z,20.11
2018-05-11T12:32:10.668Z,20.30
2018-05-11T12:34:39.849Z,20.40
2018-05-11T12:37:08.234Z,20.22
2018-05-11T12:39:36.572Z,20.20
2018-05-11T12:42:04.916Z,20.19
2018-05-11T12:44:33.284Z,20.42
2018-05-11T12:47:02.915Z,20.70
2018-05-11T12:49:31.375Z,20.90
2018-05-11T12:52:00.499Z,20.98
2018-05-11T12:54:29.815Z,21.01
2018-05-11T12:56:58.290Z,20.86
2018-05-11T12:59:26.713Z,20.71
2018-05-11T13:01:55.307Z,20.72
2018-05-11T13:04:24.624Z,20.89
2018-05-11T13:06:53.066Z,20.75
2018-05-11T13:09:21.646Z,20.52
2018-05-11T13:11:50.021Z,20.28
2018-05-11T13:14:18.380Z,20.40
2018-05-11T13:16:46.756Z,20.70
2018-05-11T13:19:15.322Z,21.20
2018-05-11T13:21:43.649Z,21.60
2018-05-11T13:24:12.839Z,21.55
2018-05-11T13:26:41.233Z,21.76
2018-05-11T13:29:13.213Z,22.20
2018-05-11T13:31:42.990Z,22.28
2018-05-11T13:34:11.360Z,22.43
2018-05-11T13:36:40.006Z,22.82
2018-05-11T13:39:09.224Z,23.13
2018-05-11T13:41:37.611Z,23.35
2018-05-11T13:44:05.977Z,23.06
2018-05-11T13:46:34.357Z,23.04
2018-05-11T13:49:04.197Z,23.09
2018-05-11T13:51:33.154Z,23.19
2018-05-11T13:54:01.543Z,23.10
2018-05-11T13:56:29.938Z,22.74
2018-05-11T13:58:59.047Z,22.53
2018-05-11T14:01:27.432Z,22.55
2018-05-11T14:03:55.784Z,22.97
2018-05-11T14:06:24.863Z,23.19
2018-05-11T14:08:53.241Z,23.33
2018-05-11T14:11:21.588Z,23.65
2018-05-11T14:13:50.829Z,23.68
2018-05-11T14:16:19.837Z,23.83
2018-05-11T14:18:48.273Z,23.71
2018-05-11T14:21:17.409Z,23.40
2018-05-11T14:23:45.750Z,23.59
2018-05-11T14:26:15.614Z,23.53
2018-05-11T14:28:43.994Z,23.42
2018-05-11T14:31:13.173Z,23.59
2018-05-11T14:33:41.559Z,23.69
2018-05-11T14:36:09.968Z,23.57
2018-05-11T14:38:38.601Z,23.64
2018-05-11T14:41:06.962Z,23.55
2018-05-11T14:43:36.401Z,22.80
2018-05-11T14:46:05.725Z,22.59
2018-05-11T14:48:34.089Z,22.83
2018-05-11T14:51:02.672Z,23.30
2018-05-11T14:53:31.984Z,23.76
2018-05-11T14:56:00.377Z,24.07
2018-05-11T14:58:28.756Z,24.22
2018-05-11T15:00:57.324Z,24.56
2018-05-11T15:03:25.705Z,24.28
2018-05-11T15:05:54.068Z,24.02
2018-05-11T15:08:23.343Z,23.76
2018-05-11T15:10:51.784Z,23.61
2018-05-11T15:13:20.346Z,23.04
2018-05-11T15:15:48.806Z,22.41
2018-05-11T15:18:17.144Z,22.39
2018-05-11T15:20:48.140Z,22.32
2018-05-11T15:23:17.246Z,22.10
2018-05-11T15:25:46.038Z,22.24
2018-05-11T15:28:14.457Z,22.42
2018-05-11T15:30:44.155Z,22.60
2018-05-11T15:33:13.932Z,22.61
2018-05-11T15:35:42.316Z,22.73
2018-05-11T15:38:10.693Z,22.80
2018-05-11T15:40:39.126Z,22.75
2018-05-11T15:43:08.250Z,22.87
2018-05-11T15:45:37.553Z,23.03
2018-05-11T15:48:05.907Z,22.77
2018-05-11T15:50:34.245Z,22.73
2018-05-11T15:53:03.223Z,22.65
2018-05-11T15:55:31.617Z,22.28
2018-05-11T15:57:59.998Z,22.19
2018-05-11T16:00:28.450Z,22.30
2018-05-11T16:02:56.836Z,22.24
2018-05-11T16:05:26.005Z,22.23
2018-05-11T16:07:54.348Z,22.16
2018-05-11T16:10:23.454Z,22.06
2018-05-11T16:12:52.716Z,21.96
2018-05-11T16:15:21.428Z,21.83
2018-05-11T16:17:50.616Z,21.87
2018-05-11T16:20:19.063Z,21.87
2018-05-11T16:22:47.541Z,21.75
2018-05-11T16:25:15.960Z,21.70
2018-05-11T16:27:45.115Z,21.67
2018-05-11T16:30:13.688Z,21.67
2018-05-11T16:32:42.081Z,21.61
2018-05-11T16:35:10.499Z,21.55
2018-05-11T16:37:39.815Z,21.51
2018-05-11T16:40:09.090Z,21.56
2018-05-11T16:42:37.531Z,21.47
2018-05-11T16:45:06.011Z,21.39
2018-05-11T16:47:34.352Z,21.33
2018-05-11T16:50:03.554Z,21.22
2018-05-11T16:52:31.881Z,21.14
2018-05-11T16:55:00.232Z,21.05
2018-05-11T16:57:29.844Z,20.95
2018-05-11T16:59:58.160Z,20.97
2018-05-11T17:02:26.540Z,21.00
2018-05-11T17:04:55.702Z,20.92
2018-05-11T17:07:24.036Z,20.94
2018-05-11T17:09:53.156Z,20.97
2018-05-11T17:12:21.553Z,20.98
2018-05-11T17:14:49.968Z,20.86
2018-05-11T17:17:18.366Z,20.83
2018-05-11T17:19:47.460Z,20.81
2018-05-11T17:22:16.547Z,20.77
2018-05-11T17:24:45.058Z,20.75
2018-05-11T17:27:13.369Z,20.74
2018-05-11T17:29:41.778Z,20.74
2018-05-11T17:32:10.129Z,20.70
2018-05-11T17:34:38.522Z,20.62
2018-05-11T17:37:07.689Z,20.57
2018-05-11T17:39:36.047Z,20.53
2018-05-11T17:42:04.376Z,20.51
2018-05-11T17:44:32.773Z,20.51
2018-05-11T17:47:01.129Z,20.52
2018-05-11T17:49:29.535Z,20.36
2018-05-11T17:51:58.640Z,20.34
2018-05-11T17:54:28.471Z,20.32
2018-05-11T17:56:56.841Z,20.29
2018-05-11T17:59:25.987Z,20.24
2018-05-11T18:01:54.755Z,20.13
2018-05-11T18:04:23.099Z,20.14
2018-05-11T18:06:52.201Z,20.13
2018-05-11T18:09:21.336Z,20.11
2018-05-11T18:11:51.050Z,20.06
2018-05-11T18:14:20.954Z,19.98
2018-05-11T18:16:49.323Z,19.95
2018-05-11T18:19:17.695Z,19.95
2018-05-11T18:21:46.073Z,19.93
2018-05-11T18:24:14.394Z,19.89
2018-05-11T18:26:42.764Z,19.85
2018-05-11T18:29:11.129Z,19.77
2018-05-11T18:31:39.465Z,19.70
2018-05-11T18:34:09.925Z,19.65
2018-05-11T18:36:38.988Z,19.62
2018-05-11T18:39:08.108Z,19.58
2018-05-11T18:41:36.476Z,19.55
2018-05-11T18:44:05.067Z,19.45
2018-05-11T18:46:33.481Z,19.39
2018-05-11T18:49:02.030Z,19.31
2018-05-11T18:51:30.502Z,19.20
2018-05-11T18:53:59.401Z,19.12
2018-05-11T18:56:28.133Z,19.08
2018-05-11T18:58:56.524Z,19.05
2018-05-11T19:01:24.873Z,19.02
2018-05-11T19:03:53.246Z,18.98
2018-05-11T19:06:21.597Z,18.92
2018-05-11T19:08:50.335Z,18.88
2018-05-11T19:11:18.689Z,18.84
2018-05-11T19:13:47.199Z,18.80
2018-05-11T19:16:15.643Z,18.76
2018-05-11T19:18:43.993Z,18.73
2018-05-11T19:21:12.434Z,18.71
2018-05-11T19:23:40.874Z,18.70
2018-05-11T19:26:09.307Z,18.65
2018-05-11T19:28:37.807Z,18.64
2018-05-11T19:31:07.218Z,18.62
2018-05-11T19:33:36.334Z,18.61
2018-05-11T19:36:05.022Z,18.59
2018-05-11T19:38:33.376Z,18.57
2018-05-11T19:41:02.791Z,18.54
2018-05-11T19:43:31.985Z,18.51
2018-05-11T19:46:00.362Z,18.51
2018-05-11T19:48:29.570Z,18.46
2018-05-11T19:50:58.071Z,18.45
2018-05-11T19:53:26.546Z,18.40
2018-05-11T19:55:54.903Z,18.39
2018-05-11T19:58:23.941Z,18.36
2018-05-11T20:00:53.188Z,18.33
2018-05-11T20:03:22.465Z,18.34
2018-05-11T20:05:50.822Z,18.23
2018-05-11T20:08:19.248Z,18.23
2018-05-11T20:10:48.451Z,18.26
2018-05-11T20:13:17.638Z,18.24
2018-05-11T20:15:47.369Z,18.17
2018-05-11T20:18:16.606Z,18.16
2018-05-11T20:20:44.964Z,18.16
2018-05-11T20:23:13.333Z,18.17
2018-05-11T20:25:41.731Z,18.22
2018-05-11T20:28:10.147Z,18.25
2018-05-11T20:30:39.914Z,18.17
2018-05-11T20:33:08.262Z,18.07
2018-05-11T20:35:36.628Z,18.02
2018-05-11T20:38:05.785Z,17.95
2018-05-11T20:40:35.165Z,17.94
2018-05-11T20:43:03.681Z,17.94
2018-05-11T20:45:32.229Z,17.93
2018-05-11T20:48:01.680Z,17.94
2018-05-11T20:50:30.048Z,17.92
2018-05-11T20:52:59.322Z,17.85
2018-05-11T20:55:27.676Z,17.84
2018-05-11T20:57:56.038Z,17.86
2018-05-11T21:00:24.392Z,17.87
2018-05-11T21:02:52.754Z,17.84
2018-05-11T21:05:21.097Z,17.80
2018-05-11T21:07:49.484Z,17.74
2018-05-11T21:10:17.813Z,17.70
2018-05-11T21:12:46.925Z,17.60
2018-05-11T21:15:15.357Z,17.59
2018-05-11T21:17:44.271Z,17.56
2018-05-11T21:20:13.550Z,17.55
2018-05-11T21:22:41.936Z,17.53
2018-05-11T21:25:10.390Z,17.50
2018-05-11T21:27:39.150Z,17.49
2018-05-11T21:30:08.340Z,17.45
2018-05-11T21:32:36.721Z,17.41
2018-05-11T21:35:05.909Z,17.38
2018-05-11T21:37:34.269Z,17.33
2018-05-11T21:40:03.601Z,17.29
2018-05-11T21:42:32.016Z,17.25
2018-05-11T21:45:00.489Z,17.20
2018-05-11T21:47:28.849Z,17.20
2018-05-11T21:49:57.214Z,17.18
2018-05-11T21:52:25.603Z,17.14
2018-05-11T21:54:55.056Z,17.01
2018-05-11T21:57:23.725Z,17.00
2018-05-11T21:59:53.421Z,16.94
2018-05-11T22:02:26.984Z,16.98
2018-05-11T22:04:55.977Z,17.02
2018-05-11T22:07:24.417Z,16.98
2018-05-11T22:09:53.286Z,16.87
2018-05-11T22:12:21.900Z,16.72
2018-05-11T22:14:50.772Z,16.72
2018-05-11T22:17:19.231Z,16.69
2018-05-11T22:19:48.407Z,16.66
2018-05-11T22:22:16.817Z,16.58
2018-05-11T22:24:45.167Z,16.43
2018-05-11T22:27:13.539Z,16.40
2018-05-11T22:29:43.372Z,16.35
2018-05-11T22:32:11.847Z,16.35
2018-05-11T22:34:40.209Z,16.44
2018-05-11T22:37:10.327Z,16.37
2018-05-11T22:39:40.912Z,16.27
2018-05-11T22:42:09.279Z,16.29
2018-05-11T22:44:37.866Z,16.32
2018-05-11T22:47:06.237Z,16.37
2018-05-11T22:49:34.629Z,16.36
2018-05-11T22:52:03.908Z,16.35
2018-05-11T22:54:32.283Z,16.36
2018-05-11T22:57:00.748Z,16.41
2018-05-11T22:59:29.153Z,16.45
2018-05-11T23:01:58.509Z,16.51
2018-05-11T23:04:29.371Z,16.54
2018-05-11T23:06:57.945Z,16.58
2018-05-11T23:09:27.156Z,16.59
2018-05-11T23:11:55.650Z,16.53
2018-05-11T23:14:25.330Z,16.53
2018-05-11T23:16:54.761Z,16.55
2018-05-11T23:19:23.178Z,16.56
2018-05-11T23:21:51.535Z,16.60
2018-05-11T23:24:19.910Z,16.57
2018-05-11T23:26:49.025Z,16.60
2018-05-11T23:29:17.669Z,16.66
2018-05-11T23:31:46.933Z,16.72
2018-05-11T23:34:15.571Z,16.75
2018-05-11T23:36:44.882Z,16.80
2018-05-11T23:39:13.267Z,16.85
2018-05-11T23:41:41.716Z,16.88
2018-05-11T23:44:10.055Z,16.90
2018-05-11T23:46:39.172Z,16.90
2018-05-11T23:49:08.289Z,16.95
2018-05-11T23:51:36.641Z,16.95
2018-05-11T23:54:05.738Z,16.97
2018-05-11T23:56:34.839Z,17.00
2018-05-11T23:59:04.630Z,17.00
